UOOO 170230Z 20011MPS 9999 OVC004 01/01 Q1005 R19/690343 NOSIG RMK QFE738/0984
QNH:(hPa/inHg/mmHg)1005 / 29.68 / 754
QFE:(hPa/inHg/mmHg)984 / 29.05 / 738
Temperature1
Dew Point1
Visibility> 10000
Weather
Cloud CoverOVC (400);
Transition Height1200 m./4600 ft.
Transition LevelFL70
SQUAWK